Time;durP1;ratioP1;P1;durP2;ratioP2;P2;SDS_P1;SDS_P2;PMS_P1;PMS_P2;Temp;Humidity;BMP_temperature;BMP_pressure;BME280_temperature;BME280_humidity;BME280_pressure;Samples;Min_cycle;Max_cycle;Signal;HPM_P1;HPM_P2
2022/06/24 00:01:12;;;;;;;4.88;4.38;;;19.50;85.90;;;;;;5029264;28;20025;-46
2022/06/24 00:03:37;;;;;;;4.88;4.38;;;19.50;85.40;;;;;;5028399;28;20029;-45
2022/06/24 00:06:12;;;;;;;6.22;4.78;;;19.50;86.10;;;;;;5029479;28;20086;-45
2022/06/24 00:08:50;;;;;;;5.78;5.13;;;19.40;86.80;;;;;;5029459;28;20021;-44
2022/06/24 00:11:16;;;;;;;6.32;4.97;;;19.40;85.10;;;;;;5028823;28;20419;-45
2022/06/24 00:13:43;;;;;;;5.97;4.25;;;19.50;85.20;;;;;;5029569;28;20029;-46
2022/06/24 00:16:09;;;;;;;6.63;4.47;;;19.50;85.50;;;;;;5029355;28;20116;-46
2022/06/24 00:18:34;;;;;;;5.95;4.25;;;19.50;84.30;;;;;;5029438;28;20418;-44
2022/06/24 00:21:00;;;;;;;4.57;4.15;;;19.50;84.20;;;;;;5028842;28;20548;-44
2022/06/24 00:23:28;;;;;;;5.63;5.03;;;19.50;84.40;;;;;;5029285;28;20021;-45
2022/06/24 00:25:53;;;;;;;6.05;4.72;;;19.50;84.40;;;;;;5029293;28;20274;-45
2022/06/24 00:28:25;;;;;;;5.30;4.80;;;19.50;84.90;;;;;;5028154;28;20018;-44
2022/06/24 00:30:53;;;;;;;6.13;4.47;;;19.40;85.30;;;;;;5028781;28;20032;-46
2022/06/24 00:33:23;;;;;;;5.18;4.53;;;19.40;85.50;;;;;;5029363;28;20101;-46
2022/06/24 00:35:51;;;;;;;6.53;4.28;;;19.40;85.20;;;;;;5028784;28;20079;-44
2022/06/24 00:38:36;;;;;;;4.80;4.22;;;19.30;85.60;;;;;;5029122;28;20029;-45
2022/06/24 00:41:13;;;;;;;4.85;4.15;;;19.30;86.40;;;;;;5028315;28;20124;-46
2022/06/24 00:43:43;;;;;;;5.07;4.60;;;19.20;86.90;;;;;;5027927;28;20112;-45
2022/06/24 00:46:23;;;;;;;5.28;4.78;;;19.20;87.40;;;;;;5028057;28;20380;-45
2022/06/24 00:48:50;;;;;;;;;;;19.20;85.30;;;;;;5029485;28;20025;-47
2022/06/24 00:51:17;;;;;;;6.10;4.93;;;19.20;85.30;;;;;;5028430;28;20243;-44
2022/06/24 00:53:52;;;;;;;6.22;4.25;;;19.20;85.60;;;;;;5028857;28;20079;-44
2022/06/24 00:56:20;;;;;;;7.13;5.05;;;19.20;85.20;;;;;;5028850;28;20433;-46
2022/06/24 00:58:57;;;;;;;5.47;4.45;;;19.20;86.20;;;;;;5028416;28;20040;-46
2022/06/24 01:01:33;;;;;;;4.82;4.45;;;19.10;86.30;;;;;;5028083;28;20052;-45
2022/06/24 01:04:00;;;;;;;7.47;4.47;;;19.10;87.30;;;;;;5028846;28;20025;-45
2022/06/24 01:06:28;;;;;;;5.82;4.50;;;19.10;87.40;;;;;;5028635;28;20029;-44
2022/06/24 01:08:54;;;;;;;5.03;4.20;;;19.10;87.10;;;;;;5028774;28;20022;-47
2022/06/24 01:11:33;;;;;;;6.70;4.68;;;19.10;86.80;;;;;;5028143;28;20063;-44
2022/06/24 01:13:59;;;;;;;4.82;4.20;;;19.10;86.50;;;;;;5028717;28;20318;-44
2022/06/24 01:16:25;;;;;;;4.95;4.43;;;19.20;86.70;;;;;;5028498;28;20037;-44
2022/06/24 01:18:53;;;;;;;4.70;4.30;;;19.20;87.80;;;;;;5028833;28;20099;-43
2022/06/24 01:21:42;;;;;;;4.82;4.43;;;19.10;86.50;;;;;;5028206;28;20087;-45
2022/06/24 01:24:22;;;;;;;5.40;4.78;;;19.10;86.70;;;;;;5028743;28;20022;-44
2022/06/24 01:26:56;;;;;;;6.28;4.50;;;19.10;86.90;;;;;;5028599;28;20317;-45
2022/06/24 01:29:23;;;;;;;9.15;4.70;;;19.20;88.00;;;;;;5028635;28;20030;-44
2022/06/24 01:31:50;;;;;;;6.45;5.47;;;19.10;88.00;;;;;;5026832;28;20148;-44
2022/06/24 01:34:22;;;;;;;7.28;4.93;;;19.10;87.50;;;;;;5028335;28;20034;-44
2022/06/24 01:36:48;;;;;;;4.82;4.30;;;19.00;88.50;;;;;;5028538;28;20087;-44
2022/06/24 01:39:14;;;;;;;6.82;4.57;;;19.00;89.50;;;;;;5028451;28;20033;-44
2022/06/24 01:41:40;;;;;;;5.10;4.68;;;18.90;88.80;;;;;;5028266;28;20513;-44
2022/06/24 01:44:06;;;;;;;5.10;4.55;;;18.90;88.80;;;;;;5028401;28;20029;-45
2022/06/24 01:46:32;;;;;;;6.85;5.07;;;18.90;88.50;;;;;;5028373;28;20137;-44
2022/06/24 01:48:57;;;;;;;4.80;4.40;;;18.90;88.80;;;;;;5030734;28;20498;-44
2022/06/24 01:51:25;;;;;;;9.15;5.47;;;18.90;88.50;;;;;;5031803;28;20100;-45
2022/06/24 01:53:50;;;;;;;5.32;4.88;;;18.90;88.80;;;;;;5032085;28;20403;-45
2022/06/24 01:56:17;;;;;;;5.97;4.95;;;18.80;90.00;;;;;;5032267;28;20037;-43
2022/06/24 01:58:43;;;;;;;5.28;4.68;;;18.80;90.20;;;;;;5030851;28;20036;-44
2022/06/24 02:01:09;;;;;;;5.45;4.85;;;18.70;90.60;;;;;;5031406;28;20029;-43
2022/06/24 02:03:34;;;;;;;5.55;5.03;;;18.70;90.40;;;;;;5030880;28;20083;-47
2022/06/24 02:06:06;;;;;;;5.75;5.25;;;18.70;90.60;;;;;;5031857;28;20221;-43
2022/06/24 02:08:32;;;;;;;5.72;5.13;;;18.60;90.60;;;;;;5031793;28;20026;-43
2022/06/24 02:13:44;;;;;;;6.10;5.05;;;18.60;90.60;;;;;;5031917;28;20283;-43
2022/06/24 02:16:10;;;;;;;5.57;5.05;;;18.60;90.70;;;;;;5031652;28;20033;-45
2022/06/24 02:18:36;;;;;;;7.32;5.20;;;18.50;91.30;;;;;;5031559;28;20026;-44
2022/06/24 02:21:02;;;;;;;5.70;5.10;;;18.50;91.20;;;;;;5031013;28;20027;-44
2022/06/24 02:23:28;;;;;;;5.80;5.20;;;18.40;91.20;;;;;;5031868;28;20029;-44
2022/06/24 02:25:54;;;;;;;5.65;4.75;;;18.40;91.60;;;;;;5031837;28;20029;-45
2022/06/24 02:28:20;;;;;;;11.98;5.07;;;18.40;92.00;;;;;;5028620;28;20033;-44
2022/06/24 02:30:47;;;;;;;5.50;4.97;;;18.30;92.30;;;;;;5027127;28;20243;-46
2022/06/24 02:33:13;;;;;;;5.88;5.30;;;18.30;91.90;;;;;;5013927;28;20076;-45
2022/06/24 02:35:40;;;;;;;9.48;5.43;;;18.30;92.20;;;;;;5028679;28;20029;-47
2022/06/24 02:38:06;;;;;;;7.25;5.55;;;18.20;92.30;;;;;;5028778;28;20049;-44
2022/06/24 02:40:47;;;;;;;5.28;4.78;;;18.20;93.10;;;;;;5010816;28;20462;-44
2022/06/24 02:43:27;;;;;;;6.43;5.00;;;18.10;93.40;;;;;;5016804;28;20104;-44
2022/06/24 02:45:59;;;;;;;5.90;5.10;;;18.10;93.70;;;;;;5021803;28;20025;-44
2022/06/24 02:48:25;;;;;;;6.75;4.97;;;18.00;93.80;;;;;;5022110;28;20485;-45
2022/06/24 02:50:56;;;;;;;5.80;5.10;;;18.10;93.60;;;;;;5020222;28;20032;-45
2022/06/24 02:53:22;;;;;;;;;;;18.00;94.10;;;;;;5020208;28;20259;-44
2022/06/24 02:55:50;;;;;;;5.30;4.63;;;18.00;94.00;;;;;;5018659;28;19909;-44
2022/06/24 02:58:16;;;;;;;5.25;4.75;;;18.00;94.20;;;;;;5020775;28;20033;-44
2022/06/24 03:00:43;;;;;;;6.72;5.15;;;18.00;94.10;;;;;;5019203;28;20549;-44
2022/06/24 03:03:10;;;;;;;5.85;5.25;;;18.10;94.00;;;;;;5018509;28;20463;-44
2022/06/24 03:05:35;;;;;;;8.27;5.00;;;18.10;94.10;;;;;;5020513;28;20258;-45
2022/06/24 03:08:01;;;;;;;5.82;5.30;;;18.10;94.10;;;;;;5020162;28;20109;-44
2022/06/24 03:10:27;;;;;;;6.68;5.03;;;18.10;94.10;;;;;;5019572;28;20029;-46
2022/06/24 03:12:52;;;;;;;5.68;5.18;;;18.20;93.90;;;;;;5016647;28;20096;-45
2022/06/24 03:15:18;;;;;;;6.07;5.20;;;18.20;93.70;;;;;;5020666;28;20104;-45
2022/06/24 03:17:44;;;;;;;6.35;4.88;;;18.20;94.30;;;;;;5019635;28;20403;-44
2022/06/24 03:20:09;;;;;;;5.50;4.80;;;18.30;93.50;;;;;;5018614;28;20732;-45
2022/06/24 03:22:35;;;;;;;7.43;5.00;;;18.40;93.30;;;;;;5020875;28;20093;-45
2022/06/24 03:25:02;;;;;;;5.13;4.60;;;18.40;93.10;;;;;;5020198;28;20457;-44
2022/06/24 03:27:27;;;;;;;7.88;4.80;;;18.40;93.50;;;;;;5020686;28;20141;-44
2022/06/24 03:29:53;;;;;;;5.82;5.20;;;18.40;93.20;;;;;;5020291;28;20097;-44
2022/06/24 03:32:18;;;;;;;5.22;4.47;;;18.40;92.90;;;;;;5019869;28;20049;-45
2022/06/24 03:34:44;;;;;;;5.15;4.65;;;18.40;92.90;;;;;;5019360;28;20021;-44
2022/06/24 03:37:10;;;;;;;5.25;4.80;;;18.50;93.00;;;;;;5020905;28;20113;-45
2022/06/24 03:39:36;;;;;;;8.48;5.00;;;18.50;93.10;;;;;;5012639;28;20033;-44
2022/06/24 03:42:02;;;;;;;4.80;4.40;;;18.50;93.10;;;;;;5010305;28;20032;-44
2022/06/24 03:44:28;;;;;;;5.82;4.82;;;18.50;92.80;;;;;;5010294;28;20097;-44
2022/06/24 03:46:53;;;;;;;6.40;4.88;;;18.50;93.80;;;;;;5010197;28;20121;-44
2022/06/24 03:49:19;;;;;;;5.55;4.85;;;18.50;93.20;;;;;;5010305;28;20033;-45
2022/06/24 03:51:45;;;;;;;7.10;4.65;;;18.50;92.90;;;;;;5009665;28;20022;-44
2022/06/24 03:54:11;;;;;;;6.88;4.75;;;18.50;93.20;;;;;;5009236;28;20033;-46
2022/06/24 03:56:36;;;;;;;6.25;4.90;;;18.50;93.40;;;;;;5010060;28;20034;-44
2022/06/24 03:59:02;;;;;;;5.93;4.70;;;18.50;93.00;;;;;;5009975;28;20033;-44
2022/06/24 04:01:28;;;;;;;7.07;5.10;;;18.60;92.70;;;;;;5009342;28;20025;-44
2022/06/24 04:03:53;;;;;;;6.55;5.18;;;18.70;92.70;;;;;;5009899;28;20173;-44
2022/06/24 04:06:19;;;;;;;6.10;5.50;;;18.70;92.40;;;;;;5008539;28;20079;-45
2022/06/24 04:08:45;;;;;;;7.47;4.72;;;18.80;92.30;;;;;;5013481;28;20103;-45
2022/06/24 04:11:12;;;;;;;5.88;4.90;;;18.80;92.70;;;;;;5017951;28;20029;-44
2022/06/24 04:13:37;;;;;;;6.45;4.75;;;18.90;92.30;;;;;;5017626;28;20025;-43
2022/06/24 04:16:03;;;;;;;9.77;5.45;;;18.90;92.20;;;;;;5019976;28;20398;-44
2022/06/24 04:18:29;;;;;;;7.18;5.70;;;19.00;91.70;;;;;;5019207;28;20138;-43
2022/06/24 04:20:55;;;;;;;10.65;5.95;;;19.10;91.80;;;;;;5018468;28;20163;-43
2022/06/24 04:23:20;;;;;;;9.07;4.93;;;19.20;91.30;;;;;;5031632;28;20041;-45
2022/06/24 04:25:49;;;;;;;6.72;5.20;;;19.30;91.30;;;;;;5025661;28;20026;-46
2022/06/24 04:28:15;;;;;;;10.00;5.53;;;19.40;90.90;;;;;;5042330;28;20360;-43
2022/06/24 04:30:40;;;;;;;5.95;4.78;;;19.40;90.80;;;;;;5035159;28;20043;-44
2022/06/24 04:33:06;;;;;;;5.47;4.90;;;19.50;90.90;;;;;;5030673;28;20034;-45
2022/06/24 04:35:32;;;;;;;6.00;4.78;;;19.60;90.70;;;;;;5025045;28;20077;-44
2022/06/24 04:37:57;;;;;;;6.22;4.80;;;19.60;90.60;;;;;;5024161;28;20038;-44
2022/06/24 04:40:23;;;;;;;7.25;4.88;;;19.70;90.20;;;;;;5033577;28;20056;-47
2022/06/24 04:42:49;;;;;;;6.20;4.72;;;19.80;90.30;;;;;;5030382;28;20086;-48
2022/06/24 04:45:14;;;;;;;6.85;4.93;;;19.90;90.20;;;;;;5025136;28;20025;-45
2022/06/24 04:47:40;;;;;;;9.32;5.07;;;19.90;90.20;;;;;;5034066;28;20052;-45
2022/06/24 04:50:07;;;;;;;9.82;5.22;;;20.00;90.40;;;;;;5031621;28;20095;-46
2022/06/24 04:52:33;;;;;;;5.82;4.85;;;20.10;89.60;;;;;;5034746;28;20025;-46
2022/06/24 04:55:00;;;;;;;10.77;5.40;;;20.10;89.40;;;;;;5032082;28;20021;-44
2022/06/24 04:57:25;;;;;;;9.00;5.13;;;20.20;89.30;;;;;;5021787;28;20105;-46
2022/06/24 04:59:51;;;;;;;6.40;4.60;;;20.20;89.20;;;;;;5018731;28;20116;-45
2022/06/24 05:02:16;;;;;;;5.60;4.97;;;20.20;89.10;;;;;;5023931;28;20030;-44
2022/06/24 05:04:42;;;;;;;9.13;5.07;;;20.20;89.00;;;;;;5028886;28;20375;-46
2022/06/24 05:07:08;;;;;;;6.18;4.70;;;20.30;88.50;;;;;;5032178;28;20025;-47
2022/06/24 05:09:34;;;;;;;7.00;4.90;;;20.30;88.50;;;;;;5033663;28;20018;-46
2022/06/24 05:12:00;;;;;;;5.47;4.63;;;20.40;88.10;;;;;;5031949;28;20418;-46
2022/06/24 05:14:26;;;;;;;8.68;5.25;;;20.40;88.50;;;;;;5032221;28;20017;-44
2022/06/24 05:16:52;;;;;;;6.18;5.00;;;20.40;88.20;;;;;;5042875;28;20037;-45
2022/06/24 05:19:17;;;;;;;7.88;4.55;;;20.50;88.00;;;;;;5038751;28;20552;-46
2022/06/24 05:21:43;;;;;;;6.07;4.80;;;20.50;87.80;;;;;;5033849;28;20078;-44
2022/06/24 05:24:08;;;;;;;8.13;4.57;;;20.50;87.60;;;;;;5048017;28;20044;-45
2022/06/24 05:26:34;;;;;;;4.93;4.40;;;20.60;87.20;;;;;;5047059;28;20308;-44
2022/06/24 05:29:00;;;;;;;8.27;5.03;;;20.70;86.50;;;;;;5022322;28;20068;-45
2022/06/24 05:31:25;;;;;;;11.18;5.45;;;20.70;85.90;;;;;;5020931;28;20022;-44
2022/06/24 05:33:51;;;;;;;11.38;5.30;;;20.80;85.60;;;;;;5023148;28;20352;-45
2022/06/24 05:36:17;;;;;;;5.45;4.45;;;20.90;85.90;;;;;;5012896;28;20303;-46
2022/06/24 05:38:44;;;;;;;8.30;4.93;;;21.00;85.30;;;;;;5012619;28;20052;-46
2022/06/24 05:41:09;;;;;;;8.90;4.78;;;21.10;84.60;;;;;;5010670;28;20491;-46
2022/06/24 05:43:35;;;;;;;6.60;4.85;;;21.30;84.40;;;;;;5012555;28;20069;-46
2022/06/24 05:46:00;;;;;;;8.25;4.40;;;21.30;84.20;;;;;;5012510;28;20064;-46
2022/06/24 05:48:27;;;;;;;6.47;5.28;;;21.40;84.20;;;;;;5018645;28;20022;-45
2022/06/24 05:50:52;;;;;;;5.72;4.85;;;21.50;84.00;;;;;;5021045;28;20018;-47
2022/06/24 05:56:02;;;;;;;8.65;4.10;;;21.70;83.00;;;;;;5022842;28;20037;-45
2022/06/24 05:58:29;;;;;;;7.90;4.10;;;21.90;83.80;;;;;;5021460;28;20018;-48
2022/06/24 06:00:55;;;;;;;7.18;4.55;;;21.90;83.20;;;;;;5020387;28;20487;-46
2022/06/24 06:03:22;;;;;;;7.85;4.57;;;22.20;81.00;;;;;;5022812;28;20065;-46
2022/06/24 06:05:48;;;;;;;8.52;4.30;;;22.30;81.50;;;;;;5022282;28;20021;-46
2022/06/24 06:08:13;;;;;;;7.38;4.35;;;22.40;81.00;;;;;;5021661;28;20022;-45
2022/06/24 06:10:39;;;;;;;8.63;4.00;;;22.50;80.80;;;;;;5020048;28;20100;-46
2022/06/24 06:13:05;;;;;;;7.00;4.25;;;22.60;79.90;;;;;;5023117;28;20485;-46
2022/06/24 06:15:30;;;;;;;4.47;3.92;;;22.70;77.90;;;;;;5021382;28;20450;-45
2022/06/24 06:17:56;;;;;;;4.60;3.92;;;22.90;76.90;;;;;;5021082;28;20033;-46
2022/06/24 06:20:21;;;;;;;6.53;4.00;;;23.10;77.00;;;;;;5021697;28;20059;-45
2022/06/24 06:22:47;;;;;;;7.05;4.57;;;23.20;75.30;;;;;;5019027;28;20447;-46
2022/06/24 06:25:15;;;;;;;6.32;4.25;;;23.30;76.00;;;;;;5019401;28;20101;-46
2022/06/24 06:27:40;;;;;;;4.43;4.00;;;23.50;74.30;;;;;;5022657;28;20032;-49
2022/06/24 06:30:07;;;;;;;8.25;3.95;;;23.50;75.30;;;;;;5022943;28;20112;-46
2022/06/24 06:32:32;;;;;;;7.10;4.22;;;23.60;74.30;;;;;;5020938;28;20040;-47
2022/06/24 06:34:58;;;;;;;4.18;3.80;;;23.70;75.00;;;;;;5013757;28;20483;-46
2022/06/24 06:37:23;;;;;;;7.07;4.78;;;23.70;74.80;;;;;;5014591;28;20026;-45
2022/06/24 06:39:49;;;;;;;6.35;4.03;;;23.80;74.30;;;;;;5014440;28;20044;-46
2022/06/24 06:42:14;;;;;;;6.18;3.75;;;23.90;73.70;;;;;;5015416;28;20088;-46
2022/06/24 06:44:40;;;;;;;6.40;4.00;;;24.00;74.00;;;;;;5015278;28;20068;-49
2022/06/24 06:47:05;;;;;;;4.95;3.70;;;24.10;73.40;;;;;;5013838;28;20079;-48
2022/06/24 06:49:32;;;;;;;5.30;4.30;;;24.20;73.40;;;;;;5014531;28;20029;-46
2022/06/24 06:52:01;;;;;;;7.25;3.72;;;24.20;73.80;;;;;;5024578;28;20391;-45
2022/06/24 06:54:27;;;;;;;7.93;4.25;;;24.30;73.80;;;;;;5024437;28;20045;-46
2022/06/24 06:56:52;;;;;;;6.03;3.63;;;24.40;74.20;;;;;;5024117;28;20064;-45
2022/06/24 06:59:18;;;;;;;6.60;3.92;;;24.50;74.00;;;;;;5024439;28;20045;-47
2022/06/24 07:01:43;;;;;;;8.00;4.40;;;24.60;73.20;;;;;;5023914;28;20040;-45
2022/06/24 07:04:09;;;;;;;6.72;3.92;;;24.70;73.50;;;;;;5024007;28;20394;-46
2022/06/24 07:06:34;;;;;;;9.30;4.43;;;24.80;73.10;;;;;;5022628;28;20269;-46
2022/06/24 07:09:00;;;;;;;5.97;4.15;;;24.80;72.60;;;;;;5022994;28;20013;-47
2022/06/24 07:11:26;;;;;;;4.50;4.07;;;24.90;72.80;;;;;;5021160;28;20523;-47
2022/06/24 07:13:51;;;;;;;7.50;4.20;;;24.90;73.20;;;;;;5019869;28;20502;-46
2022/06/24 07:16:17;;;;;;;8.13;4.55;;;25.00;72.90;;;;;;5018734;28;20022;-45
2022/06/24 07:18:42;;;;;;;7.88;4.78;;;25.10;73.60;;;;;;5019145;28;20352;-49
2022/06/24 07:21:12;;;;;;;5.45;4.45;;;25.30;72.00;;;;;;5019110;28;20022;-47
2022/06/24 07:23:37;;;;;;;4.97;4.47;;;25.30;72.80;;;;;;5018182;28;20037;-46
2022/06/24 07:26:03;;;;;;;7.50;4.57;;;25.50;72.00;;;;;;5018090;28;20560;-46
2022/06/24 07:28:28;;;;;;;7.35;4.22;;;25.60;71.10;;;;;;5021822;28;20025;-47
2022/06/24 07:30:54;;;;;;;4.78;4.28;;;25.70;70.90;;;;;;5020791;28;20113;-46
2022/06/24 07:33:20;;;;;;;11.38;4.10;;;25.80;71.20;;;;;;5020100;28;20471;-45
2022/06/24 07:35:45;;;;;;;9.18;4.20;;;25.90;70.50;;;;;;5019501;28;20032;-46
2022/06/24 07:38:11;;;;;;;7.85;4.50;;;26.00;71.10;;;;;;5018700;28;20036;-46
2022/06/24 07:40:36;;;;;;;6.15;4.25;;;26.10;70.30;;;;;;5019500;28;20426;-46
2022/06/24 07:43:02;;;;;;;5.28;4.15;;;26.20;69.90;;;;;;5018696;28;20029;-45
2022/06/24 07:45:27;;;;;;;8.93;4.47;;;26.40;70.60;;;;;;5017818;28;20025;-46
2022/06/24 07:47:53;;;;;;;6.55;4.55;;;26.50;69.70;;;;;;5019993;28;20393;-47
2022/06/24 07:50:18;;;;;;;15.30;4.70;;;26.70;69.30;;;;;;5017780;28;20030;-45
2022/06/24 07:52:44;;;;;;;5.78;4.88;;;26.80;68.70;;;;;;5018849;28;20021;-46
2022/06/24 07:57:54;;;;;;;9.15;4.72;;;27.10;69.00;;;;;;5020548;28;20037;-46
2022/06/24 08:00:20;;;;;;;5.65;4.65;;;27.30;69.10;;;;;;5018998;28;20041;-48
2022/06/24 08:02:45;;;;;;;8.52;4.50;;;27.60;68.00;;;;;;5018716;28;20030;-45
2022/06/24 08:05:11;;;;;;;7.72;4.05;;;27.80;68.00;;;;;;5018299;28;20189;-46
2022/06/24 08:07:36;;;;;;;7.25;4.22;;;28.00;67.90;;;;;;5020034;28;20025;-46
2022/06/24 08:10:03;;;;;;;7.75;4.10;;;28.30;67.10;;;;;;5018102;28;20072;-45
2022/06/24 08:12:28;;;;;;;6.88;4.10;;;28.60;65.80;;;;;;5018735;28;20026;-46
2022/06/24 08:14:54;;;;;;;5.63;4.00;;;29.30;65.10;;;;;;5020360;28;20071;-48
2022/06/24 08:17:19;;;;;;;6.20;4.43;;;30.50;62.90;;;;;;5018662;28;20018;-46
2022/06/24 08:19:45;;;;;;;4.88;3.15;;;31.50;60.40;;;;;;5018607;28;20132;-46
2022/06/24 08:22:10;;;;;;;6.85;3.53;;;32.80;58.20;;;;;;5018468;28;20040;-48
2022/06/24 08:24:36;;;;;;;8.52;3.42;;;33.30;57.70;;;;;;5018773;28;20021;-53
2022/06/24 08:27:02;;;;;;;6.63;3.33;;;34.90;55.10;;;;;;5018708;28;20025;-47
2022/06/24 08:29:30;;;;;;;5.95;3.78;;;35.60;54.20;;;;;;5018434;28;20025;-46
2022/06/24 08:31:55;;;;;;;15.15;3.58;;;36.30;52.80;;;;;;5019652;28;20056;-46
2022/06/24 08:34:21;;;;;;;3.53;2.90;;;36.90;49.90;;;;;;5018444;28;20458;-45
2022/06/24 08:36:47;;;;;;;7.15;3.35;;;36.80;49.60;;;;;;5018567;28;20214;-47
2022/06/24 08:39:13;;;;;;;9.07;3.85;;;37.30;49.30;;;;;;5020112;28;20037;-47
2022/06/24 08:41:41;;;;;;;5.85;2.92;;;37.80;49.90;;;;;;5017253;28;20076;-45
2022/06/24 08:44:08;;;;;;;5.78;3.42;;;38.50;48.30;;;;;;5018895;28;20030;-45
2022/06/24 08:46:33;;;;;;;4.53;3.28;;;37.70;47.40;;;;;;5019812;28;20033;-45
2022/06/24 08:48:59;;;;;;;3.40;3.05;;;37.90;48.30;;;;;;5018255;28;20076;-48
2022/06/24 08:51:26;;;;;;;5.45;3.35;;;39.00;47.50;;;;;;5018120;28;20024;-45
2022/06/24 08:53:56;;;;;;;5.18;2.97;;;38.30;46.80;;;;;;5018233;28;20065;-45
2022/06/24 08:56:22;;;;;;;4.00;3.15;;;38.70;46.40;;;;;;5019591;28;20030;-44
2022/06/24 08:58:48;;;;;;;5.65;3.47;;;37.70;46.80;;;;;;5021921;28;20033;-46
2022/06/24 09:01:18;;;;;;;6.60;4.05;;;38.10;46.50;;;;;;5028159;28;20475;-47
2022/06/24 09:03:44;;;;;;;8.20;3.65;;;36.50;47.70;;;;;;5028794;28;20025;-47
2022/06/24 09:06:12;;;;;;;7.53;3.63;;;38.10;47.10;;;;;;5028660;28;20078;-45
2022/06/24 09:08:38;;;;;;;11.75;4.00;;;37.30;47.30;;;;;;5028931;28;20170;-48
2022/06/24 09:11:07;;;;;;;4.50;3.63;;;36.10;47.80;;;;;;5026839;28;20566;-48
2022/06/24 09:13:45;;;;;;;3.45;3.15;;;37.10;48.40;;;;;;5028620;28;20021;-45
2022/06/24 09:16:11;;;;;;;8.07;4.00;;;37.30;48.40;;;;;;5028930;28;20501;-48
2022/06/24 09:18:38;;;;;;;5.68;3.60;;;36.90;47.70;;;;;;5028407;28;20017;-48
2022/06/24 09:21:04;;;;;;;7.85;3.65;;;37.30;47.30;;;;;;5026599;28;20026;-47
2022/06/24 09:23:29;;;;;;;5.18;3.35;;;37.80;47.40;;;;;;5026884;28;20029;-48
2022/06/24 09:26:01;;;;;;;5.22;3.67;;;38.50;46.70;;;;;;5027094;28;20414;-46
2022/06/24 09:28:29;;;;;;;5.13;3.88;;;37.60;46.20;;;;;;5026886;28;20052;-48
2022/06/24 09:31:05;;;;;;;4.28;3.40;;;38.30;46.30;;;;;;5025003;28;20320;-46
2022/06/24 09:33:38;;;;;;;7.43;3.25;;;38.10;47.30;;;;;;5026943;28;20195;-46
2022/06/24 09:36:07;;;;;;;8.30;3.47;;;39.60;46.10;;;;;;5027888;28;20025;-49
2022/06/24 09:38:35;;;;;;;4.65;3.15;;;39.70;45.10;;;;;;5028414;28;20034;-46
2022/06/24 09:41:04;;;;;;;5.85;3.20;;;40.90;45.10;;;;;;5027890;28;20113;-46
2022/06/24 09:43:30;;;;;;;;;;;41.60;42.90;;;;;;5028927;28;20076;-46
2022/06/24 09:45:56;;;;;;;4.10;3.30;;;40.10;44.30;;;;;;5028322;28;19909;-46
2022/06/24 09:48:32;;;;;;;6.75;3.60;;;41.10;43.00;;;;;;5027156;28;20029;-47
2022/06/24 09:51:00;;;;;;;4.95;3.28;;;39.90;43.80;;;;;;5027954;28;20022;-46
2022/06/24 09:53:27;;;;;;;5.30;3.45;;;39.40;45.20;;;;;;5027030;28;20221;-47
2022/06/24 09:55:53;;;;;;;5.53;3.45;;;39.80;45.40;;;;;;5026938;28;20036;-46
2022/06/24 09:58:20;;;;;;;9.93;4.10;;;39.80;44.80;;;;;;5027031;28;20032;-46
2022/06/24 10:00:47;;;;;;;4.50;3.50;;;40.80;43.90;;;;;;5027603;28;20028;-48
2022/06/24 10:03:14;;;;;;;5.13;3.80;;;41.00;43.70;;;;;;5028140;28;20030;-48
2022/06/24 10:05:42;;;;;;;4.80;3.53;;;41.20;42.90;;;;;;5027021;28;20022;-48
2022/06/24 10:08:15;;;;;;;3.97;3.17;;;41.70;42.40;;;;;;5019772;28;20022;-49
2022/06/24 10:10:47;;;;;;;6.63;3.30;;;41.70;42.20;;;;;;5022443;28;20028;-48
2022/06/24 10:13:21;;;;;;;4.10;3.55;;;41.70;41.80;;;;;;5022708;28;20116;-46
2022/06/24 10:15:47;;;;;;;4.82;3.58;;;40.30;43.00;;;;;;5023866;28;20029;-45
2022/06/24 10:18:15;;;;;;;5.80;3.67;;;38.70;43.60;;;;;;5021625;28;20030;-45
2022/06/24 10:20:45;;;;;;;6.10;3.70;;;38.30;44.90;;;;;;5021058;28;20108;-47
2022/06/24 10:23:43;;;;;;;8.20;3.72;;;39.80;44.30;;;;;;5023041;28;20029;-49
2022/06/24 10:26:19;;;;;;;4.57;3.40;;;39.00;43.50;;;;;;5022490;28;20037;-48
2022/06/24 10:29:04;;;;;;;6.03;3.35;;;39.10;43.90;;;;;;5020297;28;20014;-45
2022/06/24 10:31:42;;;;;;;6.68;3.63;;;38.80;44.50;;;;;;5021174;28;20037;-46
2022/06/24 10:34:09;;;;;;;5.03;3.70;;;38.50;45.00;;;;;;5025057;28;20018;-47
2022/06/24 10:36:35;;;;;;;4.47;3.50;;;37.70;45.60;;;;;;5023164;28;20101;-45
2022/06/24 10:39:11;;;;;;;6.60;3.92;;;36.20;46.60;;;;;;5019560;28;20432;-45
2022/06/24 10:41:38;;;;;;;6.28;4.35;;;34.30;48.80;;;;;;5018913;28;20048;-44
2022/06/24 10:44:23;;;;;;;8.73;5.03;;;32.60;51.40;;;;;;5019301;28;20025;-45
2022/06/24 10:47:07;;;;;;;9.25;4.70;;;31.40;58.70;;;;;;5022805;28;20491;-45
2022/06/24 10:49:51;;;;;;;14.30;6.18;;;30.10;62.80;;;;;;5016218;28;20076;-46
2022/06/24 10:52:31;;;;;;;22.35;8.43;;;27.80;74.40;;;;;;5010686;28;20088;-48
2022/06/24 10:55:15;;;;;;;11.25;6.90;;;25.80;86.70;;;;;;5009308;28;20033;-48
2022/06/24 10:57:41;;;;;;;12.63;9.38;;;24.00;91.50;;;;;;5017152;28;20026;-47
2022/06/24 11:00:11;;;;;;;17.35;10.38;;;23.00;99.90;;;;;;5017031;28;20053;-47
2022/06/24 11:02:36;;;;;;;19.08;12.43;;;22.00;99.90;;;;;;5025068;28;20044;-49
2022/06/24 11:05:04;;;;;;;30.15;16.85;;;21.40;99.90;;;;;;5028962;28;20478;-48
2022/06/24 11:07:29;;;;;;;21.70;16.67;;;21.40;99.90;;;;;;5028804;28;20029;-48
2022/06/24 11:09:55;;;;;;;24.30;15.50;;;21.60;99.90;;;;;;5045068;28;20357;-47
2022/06/24 11:12:28;;;;;;;23.67;16.60;;;21.60;99.90;;;;;;5030300;28;20403;-50
2022/06/24 11:14:54;;;;;;;22.50;18.20;;;21.70;99.90;;;;;;5030219;28;20025;-47
2022/06/24 11:17:24;;;;;;;21.70;15.52;;;21.90;99.90;;;;;;5030075;28;20169;-49
2022/06/24 11:19:50;;;;;;;23.08;17.10;;;21.90;99.90;;;;;;5029249;28;20080;-50
2022/06/24 11:22:16;;;;;;;21.58;16.40;;;21.80;99.90;;;;;;5029005;28;20064;-47
2022/06/24 11:24:45;;;;;;;21.77;17.80;;;22.00;99.90;;;;;;5019363;28;20142;-48
2022/06/24 11:27:11;;;;;;;14.98;11.27;;;22.10;99.90;;;;;;5017091;28;20065;-48
2022/06/24 11:29:56;;;;;;;15.65;11.70;;;22.10;99.90;;;;;;5019764;28;20014;-50
2022/06/24 11:32:23;;;;;;;17.08;12.15;;;22.10;99.90;;;;;;5020573;28;20040;-49
2022/06/24 11:34:49;;;;;;;17.73;12.30;;;22.10;99.90;;;;;;5024141;28;20025;-47
2022/06/24 11:37:23;;;;;;;11.93;10.65;;;22.30;99.90;;;;;;5025002;28;20013;-48
2022/06/24 11:39:53;;;;;;;13.65;9.45;;;22.50;99.90;;;;;;5019631;28;20026;-47
2022/06/24 11:42:19;;;;;;;13.57;9.83;;;23.10;99.90;;;;;;5021424;28;20021;-47
2022/06/24 11:44:45;;;;;;;14.90;9.10;;;23.80;99.90;;;;;;5020209;28;20128;-48
2022/06/24 11:47:10;;;;;;;8.68;7.15;;;24.20;99.90;;;;;;5019984;28;20545;-48
2022/06/24 11:49:39;;;;;;;7.95;7.13;;;24.20;99.90;;;;;;5017588;28;20018;-47
2022/06/24 11:52:05;;;;;;;9.57;6.30;;;24.60;99.90;;;;;;5018558;28;20356;-46
2022/06/24 11:54:31;;;;;;;13.07;6.68;;;24.40;99.90;;;;;;5017736;28;20520;-46
2022/06/24 11:56:58;;;;;;;10.82;6.07;;;24.20;99.90;;;;;;5018191;28;20017;-48
2022/06/24 11:59:26;;;;;;;9.75;6.40;;;23.60;99.90;;;;;;5016880;28;20029;-47
2022/06/24 12:01:52;;;;;;;9.55;5.95;;;23.20;99.90;;;;;;5013621;28;20061;-47
2022/06/24 12:04:20;;;;;;;11.88;5.57;;;22.90;99.90;;;;;;5016903;28;20036;-47
2022/06/24 12:06:47;;;;;;;7.65;5.25;;;22.30;99.90;;;;;;5017771;28;20471;-48
2022/06/24 12:09:13;;;;;;;11.02;4.90;;;21.80;99.90;;;;;;5017744;28;20029;-48
2022/06/24 12:11:40;;;;;;;13.55;5.32;;;21.50;99.90;;;;;;5018399;28;20029;-49
2022/06/24 12:14:09;;;;;;;9.55;5.95;;;21.30;99.90;;;;;;5019164;28;20072;-48
2022/06/24 12:16:53;;;;;;;10.75;5.53;;;21.10;99.90;;;;;;5017555;28;20022;-47
2022/06/24 12:19:21;;;;;;;11.98;6.20;;;20.70;99.90;;;;;;5019801;28;20422;-48
2022/06/24 12:21:46;;;;;;;9.15;5.95;;;20.50;99.90;;;;;;5018786;28;20204;-49
2022/06/24 12:24:23;;;;;;;14.10;5.30;;;20.50;99.90;;;;;;5017418;28;20112;-48
2022/06/24 12:26:51;;;;;;;8.68;5.43;;;20.80;99.90;;;;;;5017559;28;20451;-46
2022/06/24 12:29:24;;;;;;;7.60;5.85;;;21.00;99.90;;;;;;5012079;28;20061;-47
2022/06/24 12:31:50;;;;;;;10.68;5.88;;;21.10;99.90;;;;;;5008868;28;20024;-49
2022/06/24 12:34:28;;;;;;;7.40;5.63;;;21.20;99.90;;;;;;5004900;28;20108;-45
2022/06/24 12:36:59;;;;;;;7.38;5.82;;;21.50;99.90;;;;;;5024808;28;20521;-45
2022/06/24 12:39:31;;;;;;;10.45;6.68;;;21.70;99.90;;;;;;5027301;28;20449;-47
2022/06/24 12:41:57;;;;;;;7.53;5.55;;;22.00;99.90;;;;;;5026532;28;20495;-47
2022/06/24 12:44:22;;;;;;;6.20;5.47;;;22.20;99.90;;;;;;5024973;28;20021;-46
2022/06/24 12:52:43;;;;;;;5.78;4.03;;;22.50;99.90;;;;;;5027673;28;20272;-46
2022/06/24 12:55:11;;;;;;;5.10;3.72;;;22.40;99.90;;;;;;5016362;28;20022;-46
2022/06/24 12:57:36;;;;;;;4.45;3.72;;;22.50;99.90;;;;;;5011777;28;20030;-46
2022/06/24 13:00:08;;;;;;;4.22;3.33;;;22.50;99.90;;;;;;5008679;28;20054;-45
2022/06/24 13:02:42;;;;;;;5.07;3.25;;;22.60;99.90;;;;;;5008542;28;20056;-46